Current Weather

Leeuwarden

Leeuwarden, Netherlands (EHLW)

Report from: Sunday, November 27, 2022 8:25 AM CET
Current time: Sunday, November 27, 2022 8:46 AM CET

Nearby weather
Weather history
Weather forecast

Temperature6.0°C (42.8°F)
Wind chill2.3°C (36.1°F)
Dew point4.0°C (39.2°F)
Winds 11 kts (5.7 m/s, 12.7 mph) Vrb
Winds variableWinds variable from Southeast (130°) to South-Southwest (210°)
Visibility6.2 mi. (10 km)
Clouds Few clouds 5,200 ft. (1,585 m)
Ceiling: Overcast 6,000 ft. (1,829 m)
Altimeter30.09 in.Hg (1019 mB)
Relative humidity87 %
Density altitude-1,161 ft. (-354 m)
Remarks Fully automated report
Flight conditions Visual Meteorological Conditions
Raw dataEHLW 270725Z AUTO 17011KT 130V210 9999 FEW052 OVC060 06/04 Q1019 BLU
An error has occurred. This application may no longer respond until reloaded. Reload 🗙